Flight Track Log - Related Links

Times and Time Zones

All times are in EDT time to prevent confusion due to time zone crossing. See the N70AG flight status page for this flight to view local times or setup timezone preferences in your user account.

Time Position Orientation Groundspeed Altitude Reporting Facility
EDT Latitude Longitude Course Direction KTS MPH feet Rate Location/Type
Fri 01:10:48 AM 32.7942 -117.3205 308° West 269 310 7,000  Level FlightAware ADS-B (EPLL / LCJ)
Fri 01:11:22 AM 32.8262 -117.3619 311° West 294 338 9,200 3,324 Climbing FlightAware ADS-B (EPLL / LCJ)
Fri 01:12:02 AM 32.8649 -117.4136 312° West 310 357 11,100 2,757 Climbing FlightAware ADS-B (EPLL / LCJ)
Fri 01:12:36 AM 32.9037 -117.4648 312° West 363 418 12,600 2,943 Climbing FlightAware ADS-B (EPLL / LCJ)
Fri 01:13:48 AM 32.9877 -117.5760 311° West 372 428 16,300 2,842 Climbing FlightAware ADS-B (EPLL / LCJ)
Fri 01:14:49 AM 33.0497 -117.6578 311° West 372 428 18,900 2,634 Climbing Los Angeles Center
Fri 01:15:51 AM 33.1250 -117.7578 312° West 389 448 21,700 2,683 Climbing Los Angeles Center
Fri 01:16:52 AM 33.2131 -117.8461 320° Northwest 409 471 24,400 2,508 Climbing Los Angeles Center
Fri 01:17:53 AM 33.3242 -117.9058 336° Northwest 429 494 26,800 2,537 Climbing Los Angeles Center
Fri 01:18:55 AM 33.4586 -117.9747 337° Northwest 436 502 29,600 3,073 Climbing Los Angeles Center
Fri 01:19:56 AM 33.5711 -118.0317 337° Northwest 437 503 33,100 3,000 Climbing Los Angeles Center
Fri 01:20:57 AM 33.6806 -118.0861 338° Northwest 436 502 35,700 1,415 Climbing Los Angeles Center
Fri 01:21:59 AM 33.7939 -118.1431 337° Northwest 444 511 36,000 146 Climbing Los Angeles Center
Fri 01:23:00 AM 33.9144 -118.2064 336° Northwest 477 549 36,000  Level Los Angeles Center
Fri 01:24:01 AM 34.0353 -118.2708 336° Northwest 480 552 36,000  Level Los Angeles Center
Fri 01:25:03 AM 34.1808 -118.3483 336° Northwest 480 552 36,000  Level Los Angeles Center
Fri 01:26:04 AM 34.3033 -118.4122 337° Northwest 480 552 36,000  Level Los Angeles Center
Fri 01:27:05 AM 34.4267 -118.4781 336° Northwest 481 554 36,000  Level Los Angeles Center
Fri 01:28:07 AM 34.5494 -118.5428 337° Northwest 481 554 36,000  Level Los Angeles Center
Fri 01:29:08 AM 34.6728 -118.6078 337° Northwest 483 556 36,000  Level Los Angeles Center
Fri 01:30:09 AM 34.7956 -118.6750 336° Northwest 483 556 36,000  Level Los Angeles Center
Fri 01:31:10 AM 34.9292 -118.7444 337° Northwest 482 555 36,000  Level Los Angeles Center
Fri 01:32:12 AM 35.0517 -118.8094 337° Northwest 482 555 36,000  Level Los Angeles Center
Fri 01:33:13 AM 35.1736 -118.8758 336° Northwest 482 555 36,000  Level Los Angeles Center
Fri 01:34:14 AM 35.2992 -118.9406 337° Northwest 487 560 36,000  Level Los Angeles Center
Fri 01:35:15 AM 35.4211 -119.0058 336° Northwest 483 556 36,000  Level Los Angeles Center
Fri 01:36:17 AM 35.5433 -119.0731 336° Northwest 482 555 36,000  Level Los Angeles Center
Fri 01:37:18 AM 35.6639 -119.1389 336° Northwest 480 552 36,000  Level Los Angeles Center
Fri 01:38:19 AM 35.8094 -119.2200 336° Northwest 480 552 36,000  Level Los Angeles Center
Fri 01:39:20 AM 35.9314 -119.2856 336° Northwest 480 552 36,000  Level Los Angeles Center
Fri 01:39:54 AM 36.0011 -119.3239 336° Northwest 481 554 36,000  Level Oakland Center
Fri 01:40:55 AM 36.1217 -119.3903 336° Northwest 480 552 36,000  Level Oakland Center
Fri 01:41:56 AM 36.2442 -119.4578 336° Northwest 480 552 36,000  Level Oakland Center
Fri 01:42:56 AM 36.3658 -119.5250 336° Northwest 481 554 36,000 -50 Level Oakland Center
Fri 01:43:57 AM 36.4875 -119.5925 336° Northwest 481 554 35,900 -1,033 Descending Oakland Center
Fri 01:44:58 AM 36.6061 -119.6594 336° Northwest 471 542 33,900 -2,016 Descending Oakland Center
Fri 01:45:59 AM 36.7208 -119.7225 336° Northwest 455 524 31,800 -2,083 Descending Oakland Center
Fri 01:46:59 AM 36.8375 -119.7906 335° Northwest 461 531 29,700 -2,132 Descending Oakland Center
Fri 01:48:00 AM 36.9358 -119.8858 322° Northwest 452 520 27,500 -2,115 Descending Oakland Center
Fri 01:49:01 AM 37.0147 -119.9978 311° West 433 498 25,400 -2,033 Descending Oakland Center
Fri 01:50:01 AM 37.0906 -120.1081 311° West 432 497 23,400 -2,033 Descending Oakland Center
Fri 01:51:02 AM 37.1661 -120.2139 312° West 413 475 21,300 -2,459 Descending Oakland Center
Fri 01:52:03 AM 37.2547 -120.3383 312° West 401 461 18,400 -2,826 Descending Oakland Center
Fri 01:53:03 AM 37.3253 -120.4386 312° West 388 447 15,600 -2,585 Descending Oakland Center
Fri 01:54:06 AM 37.4000 -120.5333 315° West 374 430 13,100 -2,341 Descending Northern Cal TRACON
Fri 01:55:06 AM 37.4667 -120.6333 310° West 340 391 10,800 -2,000 Descending Northern Cal TRACON
Fri 01:57:00 AM 37.5833 -120.7833 314° West 305 351 7,300 -1,828 Descending Northern Cal TRACON
Fri 01:58:00 AM 37.6333 -120.8667 307° West 289 333 5,500 -1,850 Descending Northern Cal TRACON
Fri 01:59:00 AM 37.6833 -120.9333 313° West 276 318 3,600 -1,900 Descending Northern Cal TRACON

Login

Don't have an account? Register now (free) for customized features, flight alerts, and more!